Terminal Aerodrome Forecast
Issued by NWS Binghamton, NY

Home | Current Version | Previous Version | Text Only | Print | Product List | Glossary On
Versions: 1 2 3 4 5 6 7 8 9 10 11 12 13 14
456
FTUS41 KBGM 290534
TAFSYR
TAF
KSYR 290534Z 2906/3006 08004KT P6SM SCT100 BKN250
      TEMPO 2906/2907 -SHRA BKN070
     FM291600 25006KT P6SM BKN080 PROB30 2918/2924 TSRA BKN050CB
     FM300100 19004KT P6SM -SHRA BKN050 OVC100=

USA.gov is the U.S. government's official web portal to all federal, state and local government web resources and services.